createdAt,value
2022-09-09T00:04:43.414Z,42.55
2022-09-09T00:09:50.128Z,38.83
2022-09-09T00:14:58.193Z,39.80
2022-09-09T00:20:12.165Z,40.35
2022-09-09T00:25:24.098Z,46.25
2022-09-09T00:30:33.883Z,41.88
2022-09-09T00:35:40.676Z,40.70
2022-09-09T00:40:51.346Z,43.27
2022-09-09T00:46:20.950Z,40.95
2022-09-09T00:51:32.876Z,44.10
2022-09-09T00:56:43.292Z,46.35
2022-09-09T01:01:47.482Z,45.38
2022-09-09T01:07:00.384Z,50.88
2022-09-09T01:12:11.194Z,47.80
2022-09-09T01:17:19.541Z,44.38
2022-09-09T01:22:37.374Z,41.50
2022-09-09T01:27:46.192Z,43.38
2022-09-09T01:32:51.993Z,46.70
2022-09-09T01:37:57.935Z,46.65
2022-09-09T01:43:03.905Z,49.17
2022-09-09T01:48:07.395Z,53.13
2022-09-09T01:53:20.396Z,48.17
2022-09-09T01:58:36.004Z,48.60
2022-09-09T02:03:39.335Z,50.15
2022-09-09T02:08:52.915Z,49.70
2022-09-09T02:14:02.879Z,47.58
2022-09-09T02:19:13.802Z,45.35
2022-09-09T02:24:35.390Z,48.47
2022-09-09T02:29:55.202Z,47.10
2022-09-09T02:35:14.329Z,44.63
2022-09-09T02:40:18.690Z,47.28
2022-09-09T02:45:39.196Z,45.83
2022-09-09T02:50:51.030Z,45.38
2022-09-09T02:55:59.977Z,41.95
2022-09-09T03:01:04.334Z,35.95
2022-09-09T03:06:07.979Z,37.65
2022-09-09T03:11:11.343Z,37.78
2022-09-09T03:16:16.064Z,36.03
2022-09-09T03:21:23.491Z,38.30
2022-09-09T03:26:26.658Z,33.10
2022-09-09T03:31:32.023Z,31.75
2022-09-09T03:36:35.733Z,34.85
2022-09-09T03:41:39.459Z,34.22
2022-09-09T03:46:44.911Z,33.85
2022-09-09T03:51:47.731Z,33.08
2022-09-09T03:56:51.294Z,31.05
2022-09-09T04:01:55.737Z,32.33
2022-09-09T04:06:58.702Z,31.98
2022-09-09T04:12:01.776Z,29.15
2022-09-09T04:17:08.059Z,32.40
2022-09-09T04:22:11.363Z,29.48
2022-09-09T04:27:14.246Z,31.65
2022-09-09T04:32:18.662Z,29.20
2022-09-09T04:37:22.539Z,29.63
2022-09-09T04:42:26.065Z,30.17
2022-09-09T04:47:30.975Z,28.17
2022-09-09T04:52:36.062Z,24.17
2022-09-09T04:57:39.169Z,25.42
2022-09-09T05:02:43.613Z,23.13
2022-09-09T05:07:46.865Z,21.60
2022-09-09T05:12:54.999Z,21.90
2022-09-09T05:18:03.819Z,23.40
2022-09-09T05:23:08.435Z,22.43
2022-09-09T05:28:12.575Z,20.58
2022-09-09T05:33:17.171Z,21.20
2022-09-09T05:38:20.905Z,20.77
2022-09-09T05:43:24.348Z,20.27
2022-09-09T05:48:30.644Z,19.30
2022-09-09T05:53:35.126Z,16.88
2022-09-09T05:58:39.212Z,15.05
2022-09-09T06:03:48.096Z,15.20
2022-09-09T06:08:53.880Z,14.50
2022-09-09T06:13:57.347Z,14.43
2022-09-09T06:19:03.464Z,14.93
2022-09-09T06:24:08.235Z,12.95
2022-09-09T06:29:11.925Z,11.50
2022-09-09T06:34:17.054Z,11.25
2022-09-09T06:39:24.275Z,11.02
2022-09-09T06:44:29.498Z,9.23
2022-09-09T06:49:36.959Z,9.05
2022-09-09T06:54:43.733Z,10.93
2022-09-09T06:59:46.729Z,7.88
2022-09-09T07:04:51.957Z,7.82
2022-09-09T07:09:54.892Z,5.32
2022-09-09T07:14:57.775Z,6.30
2022-09-09T07:20:04.724Z,7.30
2022-09-09T07:25:09.875Z,5.55
2022-09-09T07:30:20.206Z,5.53
2022-09-09T07:35:28.069Z,4.28
2022-09-09T07:40:31.183Z,8.93
2022-09-09T07:45:36.720Z,6.80
2022-09-09T07:50:41.261Z,4.85
2022-09-09T07:55:45.421Z,5.68
2022-09-09T08:00:48.415Z,7.25
2022-09-09T08:05:52.797Z,5.70
2022-09-09T08:11:03.268Z,6.22
2022-09-09T08:16:12.452Z,4.97
2022-09-09T08:21:18.800Z,4.85
2022-09-09T08:26:24.187Z,5.95
2022-09-09T08:31:30.197Z,4.38
2022-09-09T08:36:36.966Z,5.55
2022-09-09T08:41:54.722Z,4.38
2022-09-09T08:47:12.614Z,5.47
2022-09-09T08:52:24.002Z,3.78
2022-09-09T08:57:30.218Z,2.67
2022-09-09T09:02:39.156Z,4.35
2022-09-09T09:07:57.622Z,5.93
2022-09-09T09:13:05.685Z,4.90
2022-09-09T09:18:14.504Z,5.72
2022-09-09T09:23:24.464Z,4.03
2022-09-09T09:28:32.192Z,5.70
2022-09-09T09:33:48.576Z,3.60
2022-09-09T09:44:28.272Z,2.70
2022-09-09T09:49:33.637Z,3.20
2022-09-09T09:54:43.587Z,5.45
2022-09-09T09:59:48.023Z,2.97
2022-09-09T10:05:05.974Z,2.42
2022-09-09T10:10:17.562Z,2.58
2022-09-09T10:15:33.021Z,3.60
2022-09-09T10:20:45.835Z,4.55
2022-09-09T10:26:07.386Z,6.88
2022-09-09T10:31:20.425Z,4.15
2022-09-09T10:36:26.577Z,5.53
2022-09-09T10:41:46.056Z,4.40
2022-09-09T10:47:01.737Z,3.92
2022-09-09T10:52:16.290Z,5.10
2022-09-09T10:57:30.878Z,11.13
2022-09-09T11:02:35.625Z,3.90
2022-09-09T11:07:44.804Z,5.40
2022-09-09T11:12:52.491Z,5.15
2022-09-09T11:17:59.697Z,7.80
2022-09-09T11:23:07.621Z,3.77
2022-09-09T11:33:59.173Z,4.43
2022-09-09T11:39:08.055Z,2.97
2022-09-09T11:44:21.412Z,4.95
2022-09-09T11:49:29.571Z,3.80
2022-09-09T11:54:36.060Z,5.38
2022-09-09T11:59:40.728Z,3.72
2022-09-09T12:04:46.666Z,2.92
2022-09-09T12:09:52.729Z,4.45
2022-09-09T12:15:16.699Z,4.03
2022-09-09T12:20:23.378Z,4.18
2022-09-09T12:25:50.710Z,4.88
2022-09-09T12:31:00.946Z,6.05
2022-09-09T12:36:07.363Z,6.63
2022-09-09T12:41:22.005Z,9.52
2022-09-09T12:46:45.422Z,10.43
2022-09-09T12:51:48.389Z,4.53
2022-09-09T12:57:09.589Z,11.13
2022-09-09T13:02:34.623Z,3.35
2022-09-09T13:07:44.123Z,5.40
2022-09-09T13:12:59.419Z,5.00
2022-09-09T13:18:13.516Z,5.18
2022-09-09T13:23:18.072Z,6.95
2022-09-09T13:28:26.086Z,8.17
2022-09-09T13:33:35.583Z,9.27
2022-09-09T13:38:41.103Z,8.48
2022-09-09T13:43:48.213Z,5.50
2022-09-09T13:48:57.749Z,8.73
2022-09-09T13:54:01.543Z,7.45
2022-09-09T13:59:10.591Z,6.82
2022-09-09T14:04:15.360Z,6.97
2022-09-09T14:09:19.813Z,5.82
2022-09-09T14:14:24.648Z,8.55
2022-09-09T14:19:28.957Z,8.50
2022-09-09T14:24:31.884Z,9.05
2022-09-09T14:29:34.654Z,6.90
2022-09-09T14:34:39.298Z,5.20
2022-09-09T14:39:44.966Z,4.45
2022-09-09T14:44:48.793Z,5.22
2022-09-09T14:49:53.112Z,4.43
2022-09-09T14:54:55.927Z,4.30
2022-09-09T14:59:58.978Z,5.22
2022-09-09T15:05:04.449Z,5.72
2022-09-09T15:10:08.010Z,5.45
2022-09-09T15:15:12.319Z,4.80
2022-09-09T15:20:17.637Z,6.18
2022-09-09T15:25:20.545Z,7.85
2022-09-09T15:30:23.288Z,3.83
2022-09-09T15:35:27.509Z,5.53
2022-09-09T15:40:31.646Z,5.97
2022-09-09T15:45:34.542Z,4.32
2022-09-09T15:50:38.633Z,6.00
2022-09-09T15:55:42.286Z,4.13
2022-09-09T16:00:48.043Z,3.65
2022-09-09T16:05:54.528Z,3.05
2022-09-09T16:10:57.401Z,3.03
2022-09-09T16:16:00.340Z,2.72
2022-09-09T16:21:05.949Z,3.67
2022-09-09T16:26:08.983Z,3.63
2022-09-09T16:31:15.866Z,4.15
2022-09-09T16:36:22.017Z,3.13
2022-09-09T16:41:25.281Z,3.03
2022-09-09T16:46:29.863Z,3.05
2022-09-09T16:51:35.979Z,4.28
2022-09-09T16:56:42.102Z,3.20
2022-09-09T17:01:47.145Z,3.05
2022-09-09T17:06:53.225Z,2.97
2022-09-09T17:11:56.220Z,4.15
2022-09-09T17:17:13.609Z,2.90
2022-09-09T17:22:24.035Z,3.97
2022-09-09T17:27:27.100Z,2.80
2022-09-09T17:32:29.913Z,3.60
2022-09-09T17:37:34.383Z,6.13
2022-09-09T17:42:37.346Z,6.18
2022-09-09T17:47:40.909Z,4.68
2022-09-09T17:52:45.207Z,3.88
2022-09-09T17:57:48.048Z,8.30
2022-09-09T18:02:50.879Z,6.45
2022-09-09T18:07:55.077Z,6.22
2022-09-09T18:12:58.102Z,8.30
2022-09-09T18:18:06.920Z,7.40
2022-09-09T18:23:11.059Z,7.95
2022-09-09T18:28:13.865Z,7.30
2022-09-09T18:33:16.927Z,7.80
2022-09-09T18:38:21.204Z,8.05
2022-09-09T18:43:24.003Z,7.13
2022-09-09T18:48:26.839Z,8.13
2022-09-09T18:53:31.044Z,5.97
2022-09-09T18:58:35.173Z,7.93
2022-09-09T19:03:41.741Z,17.70
2022-09-09T19:08:50.100Z,10.40
2022-09-09T19:13:57.919Z,7.38
2022-09-09T19:19:02.010Z,13.10
2022-09-09T19:24:09.164Z,7.70
2022-09-09T19:29:16.828Z,9.88
2022-09-09T19:34:20.314Z,21.75
2022-09-09T19:39:24.720Z,13.55
2022-09-09T19:44:27.789Z,18.58
2022-09-09T19:49:31.184Z,15.50
2022-09-09T19:54:35.571Z,16.60
2022-09-09T19:59:38.822Z,13.45
2022-09-09T20:04:41.784Z,24.08
2022-09-09T20:09:46.011Z,14.73
2022-09-09T20:14:48.768Z,19.25
2022-09-09T20:19:51.626Z,23.38
2022-09-09T20:24:55.790Z,13.18
2022-09-09T20:29:59.299Z,16.67
2022-09-09T20:35:02.097Z,13.30
2022-09-09T20:40:07.179Z,11.20
2022-09-09T20:45:16.085Z,12.82
2022-09-09T20:50:18.819Z,12.60
2022-09-09T20:55:22.976Z,14.27
2022-09-09T21:00:25.802Z,11.30
2022-09-09T21:05:28.856Z,9.23
2022-09-09T21:10:34.056Z,14.98
2022-09-09T21:15:38.016Z,12.80
2022-09-09T21:20:43.280Z,11.23
2022-09-09T21:25:48.535Z,11.80
2022-09-09T21:30:55.754Z,10.73
2022-09-09T21:36:03.666Z,10.67
2022-09-09T21:41:10.353Z,9.60
2022-09-09T21:46:15.555Z,9.55
2022-09-09T21:51:19.488Z,10.57
2022-09-09T21:56:23.599Z,8.43
2022-09-09T22:01:26.680Z,7.72
2022-09-09T22:06:29.595Z,6.57
2022-09-09T22:11:35.024Z,6.53
2022-09-09T22:16:38.148Z,5.65
2022-09-09T22:21:40.866Z,4.45
2022-09-09T22:26:45.216Z,5.00
2022-09-09T22:31:48.065Z,4.25
2022-09-09T22:36:51.107Z,6.05
2022-09-09T22:41:55.968Z,4.80
2022-09-09T22:46:58.788Z,9.65
2022-09-09T22:52:01.572Z,4.88
2022-09-09T22:57:06.068Z,4.97
2022-09-09T23:02:10.011Z,6.05
2022-09-09T23:07:12.766Z,7.25
2022-09-09T23:12:20.614Z,5.82
2022-09-09T23:17:23.520Z,6.32
2022-09-09T23:22:26.887Z,9.30
2022-09-09T23:27:31.290Z,7.43
2022-09-09T23:32:34.419Z,7.47
2022-09-09T23:37:37.332Z,9.50
2022-09-09T23:42:41.524Z,9.60
2022-09-09T23:47:44.379Z,10.15
2022-09-09T23:52:47.182Z,6.05
2022-09-09T23:57:51.747Z,7.50
